Time;durP1;ratioP1;P1;durP2;ratioP2;P2;SDS_P1;SDS_P2;PMS_P1;PMS_P2;Temp;Humidity;BMP_temperature;BMP_pressure;BME280_temperature;BME280_humidity;BME280_pressure;Samples;Min_cycle;Max_cycle;Signal;HPM_P1;HPM_P2
2020/12/24 00:00:31;;;;;;;2.80;1.50;;;10.10;99.90;;;;;;5080756;28;20818;-84
2020/12/24 00:03:04;;;;;;;1.50;1.40;;;10.10;99.90;;;;;;5099981;28;20368;-82
2020/12/24 00:05:30;;;;;;;1.90;1.60;;;10.10;99.90;;;;;;5099521;28;20378;-84
2020/12/24 00:07:56;;;;;;;1.60;1.50;;;10.20;99.90;;;;;;5102844;28;20428;-83
2020/12/24 00:10:22;;;;;;;2.00;1.70;;;10.20;99.90;;;;;;5106816;28;20254;-83
2020/12/24 00:12:47;;;;;;;3.47;1.67;;;10.30;99.90;;;;;;5108093;28;20406;-83
2020/12/24 00:15:13;;;;;;;2.13;1.93;;;10.30;99.90;;;;;;5105654;28;20175;-83
2020/12/24 00:17:41;;;;;;;1.63;1.53;;;10.20;99.90;;;;;;5099186;28;20190;-83
2020/12/24 00:20:07;;;;;;;1.33;1.23;;;10.20;99.90;;;;;;5098688;28;20250;-83
2020/12/24 00:22:33;;;;;;;1.60;1.50;;;10.10;99.90;;;;;;5099272;28;20419;-84
2020/12/24 00:24:59;;;;;;;4.00;1.40;;;10.20;99.90;;;;;;5098649;28;20395;-83
2020/12/24 00:27:25;;;;;;;1.40;1.30;;;10.10;99.90;;;;;;5098281;28;20518;-83
2020/12/24 00:29:51;;;;;;;2.37;1.50;;;10.20;99.90;;;;;;5098482;28;20405;-83
2020/12/24 00:32:17;;;;;;;1.67;1.57;;;10.30;99.90;;;;;;5098874;28;20375;-82
2020/12/24 00:34:43;;;;;;;1.53;1.43;;;10.30;99.90;;;;;;5080649;28;20393;-83
2020/12/24 00:37:09;;;;;;;1.33;1.23;;;10.20;99.90;;;;;;5098163;28;20773;-83
2020/12/24 00:39:35;;;;;;;1.50;1.40;;;10.20;99.90;;;;;;5080455;28;20534;-83
2020/12/24 00:42:01;;;;;;;1.70;1.43;;;10.30;99.90;;;;;;5098350;28;20519;-83
2020/12/24 00:44:26;;;;;;;1.80;1.70;;;10.30;99.90;;;;;;5098960;28;20225;-83
2020/12/24 00:46:52;;;;;;;2.80;1.53;;;10.30;99.90;;;;;;5080179;28;20163;-82
2020/12/24 00:49:18;;;;;;;1.20;1.10;;;10.30;99.90;;;;;;5097961;28;20171;-83
2020/12/24 00:51:44;;;;;;;1.50;1.40;;;10.30;99.90;;;;;;5098859;28;20198;-83
2020/12/24 00:54:10;;;;;;;1.50;1.40;;;10.30;99.90;;;;;;5099153;28;20392;-83
2020/12/24 00:56:36;;;;;;;1.50;1.33;;;10.30;99.90;;;;;;5080688;28;20204;-83
2020/12/24 00:59:02;;;;;;;1.37;1.27;;;10.30;99.90;;;;;;5098882;28;20440;-83
2020/12/24 01:01:28;;;;;;;1.90;1.70;;;10.40;99.90;;;;;;5097292;28;20227;-83
2020/12/24 01:03:54;;;;;;;1.60;1.50;;;10.30;99.90;;;;;;5098138;28;20363;-83
2020/12/24 01:06:20;;;;;;;1.20;1.10;;;10.30;99.90;;;;;;5097964;28;20273;-83
2020/12/24 01:08:45;;;;;;;1.30;1.20;;;10.40;99.90;;;;;;5098205;28;20388;-84
2020/12/24 01:11:11;;;;;;;2.10;1.50;;;10.30;99.90;;;;;;5061884;28;20236;-83
2020/12/24 01:13:37;;;;;;;1.50;1.40;;;10.30;99.90;;;;;;5079801;28;20170;-83
2020/12/24 01:16:03;;;;;;;1.40;1.30;;;10.30;99.90;;;;;;5080548;28;20371;-83
2020/12/24 01:18:29;;;;;;;1.47;1.37;;;10.30;99.90;;;;;;5098450;28;20444;-81
2020/12/24 01:20:55;;;;;;;1.90;1.80;;;10.30;99.90;;;;;;5097167;28;20230;-83
2020/12/24 01:23:21;;;;;;;2.20;1.37;;;10.30;99.90;;;;;;5079415;28;20413;-83
2020/12/24 01:25:47;;;;;;;1.30;1.20;;;10.20;99.90;;;;;;5080689;28;20155;-82
2020/12/24 01:28:12;;;;;;;8.00;1.67;;;10.20;99.90;;;;;;5098686;28;20619;-82
2020/12/24 01:30:38;;;;;;;3.53;1.73;;;10.20;99.90;;;;;;5098268;28;20163;-82
2020/12/24 01:33:04;;;;;;;2.47;2.20;;;10.30;99.90;;;;;;5098527;28;20521;-82
2020/12/24 01:35:30;;;;;;;2.23;1.90;;;10.20;99.90;;;;;;5081383;28;20162;-82
2020/12/24 01:37:55;;;;;;;1.37;1.27;;;10.00;99.90;;;;;;5099029;28;20218;-82
2020/12/24 01:40:21;;;;;;;3.20;1.63;;;10.20;99.90;;;;;;5098337;28;20559;-81
2020/12/24 01:42:48;;;;;;;1.57;1.30;;;10.40;99.90;;;;;;5098613;28;20190;-82
2020/12/24 01:45:14;;;;;;;2.10;1.13;;;10.50;99.90;;;;;;5080961;28;20159;-82
2020/12/24 01:47:40;;;;;;;2.03;1.70;;;10.50;99.90;;;;;;5098421;28;20371;-81
2020/12/24 01:50:06;;;;;;;1.60;1.50;;;10.50;99.90;;;;;;5098366;28;20372;-84
2020/12/24 01:52:35;;;;;;;1.20;1.10;;;10.60;99.90;;;;;;5081096;28;20408;-84
2020/12/24 01:55:05;;;;;;;2.80;1.40;;;10.60;99.90;;;;;;5097983;28;20192;-84
2020/12/24 01:57:31;;;;;;;1.00;1.00;;;10.60;99.90;;;;;;5098527;28;20449;-83
2020/12/24 01:59:56;;;;;;;1.00;1.00;;;10.60;99.90;;;;;;5099167;28;20399;-83
2020/12/24 02:02:23;;;;;;;3.90;1.30;;;10.60;99.90;;;;;;5079226;28;20155;-83
2020/12/24 02:04:50;;;;;;;1.20;1.10;;;10.70;99.90;;;;;;5096815;28;20163;-83
2020/12/24 02:07:18;;;;;;;0.90;0.90;;;10.70;99.90;;;;;;5097488;28;20372;-83
2020/12/24 02:09:45;;;;;;;1.13;1.03;;;10.70;99.90;;;;;;5097932;28;20393;-83
2020/12/24 02:12:12;;;;;;;1.20;1.00;;;10.70;99.90;;;;;;5099101;28;20409;-83
2020/12/24 02:14:38;;;;;;;1.00;0.90;;;10.70;99.90;;;;;;5100604;28;20379;-82
2020/12/24 02:17:04;;;;;;;1.50;1.40;;;10.80;99.90;;;;;;5110725;28;20497;-82
2020/12/24 02:19:30;;;;;;;1.10;1.00;;;10.70;99.90;;;;;;5089200;28;20198;-83
2020/12/24 02:21:55;;;;;;;1.50;1.27;;;10.70;99.90;;;;;;5102231;28;20226;-83
2020/12/24 02:24:21;;;;;;;1.13;1.03;;;10.70;99.90;;;;;;5099043;28;20194;-83
2020/12/24 02:26:47;;;;;;;1.77;1.17;;;10.70;99.90;;;;;;5079094;28;20167;-83
2020/12/24 02:29:13;;;;;;;1.43;1.33;;;10.60;99.90;;;;;;5097344;28;20412;-83
2020/12/24 02:31:38;;;;;;;1.60;1.37;;;10.50;99.90;;;;;;5097317;28;20162;-83
2020/12/24 02:34:04;;;;;;;1.30;1.20;;;10.50;99.90;;;;;;5097483;28;20162;-83
2020/12/24 02:36:30;;;;;;;3.47;1.43;;;10.40;99.90;;;;;;5097323;28;20190;-83
2020/12/24 02:38:55;;;;;;;1.57;1.30;;;10.40;99.90;;;;;;5097800;28;20194;-83
2020/12/24 02:41:22;;;;;;;1.67;1.43;;;10.40;99.90;;;;;;5097742;28;20159;-83
2020/12/24 02:43:50;;;;;;;1.27;1.17;;;10.30;99.90;;;;;;5079210;28;20180;-83
2020/12/24 02:46:17;;;;;;;1.10;1.00;;;10.30;99.90;;;;;;5097066;28;20881;-83
2020/12/24 02:48:43;;;;;;;1.10;1.00;;;10.20;99.90;;;;;;5097968;28;20367;-83
2020/12/24 02:51:10;;;;;;;1.10;1.00;;;10.30;99.90;;;;;;5096913;28;20428;-84
2020/12/24 02:53:36;;;;;;;1.07;1.00;;;10.30;99.90;;;;;;5080395;28;20792;-83
2020/12/24 02:56:02;;;;;;;1.33;1.23;;;10.30;99.90;;;;;;5100337;28;20372;-83
2020/12/24 02:58:28;;;;;;;1.37;1.27;;;10.30;99.90;;;;;;5097258;28;20441;-83
2020/12/24 03:00:54;;;;;;;1.10;1.00;;;10.20;99.90;;;;;;5097389;28;20475;-83
2020/12/24 03:03:20;;;;;;;1.77;1.67;;;10.20;99.90;;;;;;5098053;28;20227;-83
2020/12/24 03:05:47;;;;;;;2.50;1.23;;;10.20;99.90;;;;;;5098539;28;20154;-83
2020/12/24 03:08:13;;;;;;;1.23;1.13;;;10.20;99.90;;;;;;5099557;28;20720;-83
2020/12/24 03:10:39;;;;;;;1.30;1.20;;;10.20;99.90;;;;;;5097484;28;20395;-83
2020/12/24 03:13:05;;;;;;;2.97;1.73;;;10.30;99.90;;;;;;5081615;28;20400;-84
2020/12/24 03:15:31;;;;;;;1.20;1.10;;;10.30;99.90;;;;;;5099043;28;20204;-84
2020/12/24 03:17:58;;;;;;;1.27;1.10;;;10.20;99.90;;;;;;5099005;28;20565;-83
2020/12/24 03:20:23;;;;;;;1.50;1.27;;;10.20;99.90;;;;;;5098915;28;20238;-84
2020/12/24 03:22:49;;;;;;;3.33;1.20;;;10.10;99.90;;;;;;5097781;28;20432;-83
2020/12/24 03:25:15;;;;;;;2.40;1.40;;;10.20;99.90;;;;;;5098528;28;20155;-83
2020/12/24 03:27:40;;;;;;;1.50;1.40;;;10.00;99.90;;;;;;5098665;28;20518;-83
2020/12/24 03:30:09;;;;;;;1.40;1.30;;;10.10;99.90;;;;;;5081674;28;20490;-83
2020/12/24 03:32:35;;;;;;;2.27;1.10;;;10.00;99.90;;;;;;5099550;28;20173;-83
2020/12/24 03:35:01;;;;;;;2.13;1.20;;;10.00;99.90;;;;;;5103623;28;20400;-83
2020/12/24 03:37:27;;;;;;;1.00;1.00;;;10.10;99.90;;;;;;5102731;28;20415;-83
2020/12/24 03:39:53;;;;;;;1.27;1.17;;;10.00;99.90;;;;;;5101598;28;20832;-83
2020/12/24 03:42:18;;;;;;;2.90;1.53;;;10.00;99.90;;;;;;5101862;28;20424;-83
2020/12/24 03:44:44;;;;;;;1.67;1.27;;;10.00;99.90;;;;;;5102833;28;20572;-83
2020/12/24 03:47:10;;;;;;;5.00;1.10;;;10.00;99.90;;;;;;5102596;28;20159;-83
2020/12/24 03:49:37;;;;;;;2.03;1.07;;;10.00;99.90;;;;;;5103478;28;20162;-84
2020/12/24 03:52:03;;;;;;;1.27;1.17;;;9.90;99.90;;;;;;5108726;28;20186;-83
2020/12/24 03:54:29;;;;;;;1.80;1.70;;;9.90;99.90;;;;;;5112869;28;20375;-83
2020/12/24 03:56:55;;;;;;;2.20;2.10;;;9.90;99.90;;;;;;5111506;28;20183;-83
2020/12/24 03:59:20;;;;;;;1.20;1.10;;;9.90;99.90;;;;;;5112467;28;20170;-83
2020/12/24 04:01:46;;;;;;;1.20;1.10;;;9.90;99.90;;;;;;5111625;28;20241;-83
2020/12/24 04:04:12;;;;;;;3.37;1.03;;;9.90;99.90;;;;;;5111917;28;20498;-83
2020/12/24 04:06:38;;;;;;;2.10;1.40;;;9.90;99.90;;;;;;5112033;28;20173;-83
2020/12/24 04:09:04;;;;;;;1.87;1.03;;;9.90;99.90;;;;;;5112066;28;20162;-83
2020/12/24 04:11:30;;;;;;;1.07;1.00;;;9.90;99.90;;;;;;5113414;28;20169;-83
2020/12/24 04:13:56;;;;;;;1.10;1.00;;;9.90;99.90;;;;;;5093546;28;20465;-83
2020/12/24 04:16:23;;;;;;;3.57;1.80;;;9.90;99.90;;;;;;5111201;28;20460;-82
2020/12/24 04:18:49;;;;;;;1.30;1.20;;;9.80;99.90;;;;;;5111955;28;20512;-82
2020/12/24 04:21:14;;;;;;;1.60;1.35;;;9.80;99.90;;;;;;5108092;28;20419;-83
2020/12/24 04:23:40;;;;;;;1.57;1.30;;;9.90;99.90;;;;;;5109590;28;20659;-83
2020/12/24 04:26:06;;;;;;;1.13;1.03;;;9.90;99.90;;;;;;5108292;28;20202;-84
2020/12/24 04:28:32;;;;;;;2.17;1.27;;;9.90;99.90;;;;;;5107901;28;20239;-83
2020/12/24 04:30:58;;;;;;;1.20;1.10;;;9.90;99.90;;;;;;5093078;28;20158;-83
2020/12/24 04:33:23;;;;;;;1.70;1.27;;;9.90;99.90;;;;;;5093883;28;20178;-82
2020/12/24 04:35:53;;;;;;;1.10;1.00;;;10.00;99.90;;;;;;5108944;28;20166;-83
2020/12/24 04:38:18;;;;;;;1.33;1.23;;;9.90;99.90;;;;;;5107878;28;20202;-82
2020/12/24 04:40:48;;;;;;;2.00;1.20;;;9.80;99.90;;;;;;5109054;28;20488;-82
2020/12/24 04:43:14;;;;;;;2.80;1.20;;;9.60;99.90;;;;;;5112627;28;20170;-83
2020/12/24 04:45:40;;;;;;;3.37;2.00;;;9.50;99.90;;;;;;5110221;28;20368;-81
2020/12/24 04:48:07;;;;;;;4.10;1.53;;;9.40;99.90;;;;;;5074467;28;20454;-82
2020/12/24 04:50:37;;;;;;;1.83;1.13;;;9.40;99.90;;;;;;5112908;28;20173;-83
2020/12/24 04:53:03;;;;;;;2.20;1.03;;;9.30;99.90;;;;;;5112740;28;20367;-82
2020/12/24 04:55:28;;;;;;;1.20;1.10;;;9.30;99.90;;;;;;5112714;28;20375;-83
2020/12/24 04:57:58;;;;;;;1.80;1.00;;;9.20;99.90;;;;;;5094220;28;20533;-83
2020/12/24 05:00:26;;;;;;;1.73;1.40;;;9.20;99.90;;;;;;5112060;28;20163;-82
2020/12/24 05:03:05;;;;;;;1.20;1.10;;;9.30;99.90;;;;;;5111494;28;20610;-82
2020/12/24 05:05:32;;;;;;;2.80;1.47;;;9.30;99.90;;;;;;5094006;28;20389;-82
2020/12/24 05:08:01;;;;;;;1.50;1.40;;;9.20;99.90;;;;;;5110001;28;20766;-82
2020/12/24 05:10:27;;;;;;;4.93;1.30;;;9.20;99.90;;;;;;5107191;28;20756;-82
2020/12/24 05:12:52;;;;;;;4.53;1.50;;;9.00;99.90;;;;;;5102985;28;20395;-83
2020/12/24 05:15:28;;;;;;;1.20;1.10;;;9.10;99.90;;;;;;5098374;28;20257;-82
2020/12/24 05:17:54;;;;;;;1.53;1.43;;;9.10;99.90;;;;;;5081622;28;20681;-83
2020/12/24 05:20:20;;;;;;;2.40;1.40;;;9.10;99.90;;;;;;5099390;28;20435;-83
2020/12/24 05:22:46;;;;;;;2.40;1.40;;;9.10;99.90;;;;;;5098284;28;20375;-83
2020/12/24 05:25:19;;;;;;;5.33;1.63;;;9.00;99.90;;;;;;5098025;28;20400;-82
2020/12/24 05:27:55;;;;;;;2.90;1.50;;;9.10;99.90;;;;;;5105217;28;20159;-82
2020/12/24 05:30:25;;;;;;;2.80;1.50;;;9.20;99.90;;;;;;5113571;28;20403;-83
2020/12/24 05:32:52;;;;;;;1.90;1.50;;;9.00;99.90;;;;;;5098676;28;20400;-83
2020/12/24 05:35:23;;;;;;;1.20;1.10;;;9.00;99.90;;;;;;5098854;28;20400;-83
2020/12/24 05:37:50;;;;;;;2.40;1.23;;;8.90;99.90;;;;;;5078863;28;20448;-83
2020/12/24 05:40:24;;;;;;;11.80;1.97;;;8.90;99.90;;;;;;5098951;28;20389;-82
2020/12/24 05:42:55;;;;;;;1.30;1.20;;;8.90;99.90;;;;;;5098650;28;20371;-82
2020/12/24 05:45:25;;;;;;;2.70;1.30;;;9.00;99.90;;;;;;5098039;28;20852;-81
2020/12/24 05:48:11;;;;;;;3.57;1.70;;;8.90;99.90;;;;;;5078495;28;20778;-83
2020/12/24 05:50:38;;;;;;;6.10;2.30;;;8.90;99.90;;;;;;5097246;28;20391;-82
2020/12/24 05:53:10;;;;;;;6.10;1.50;;;8.90;99.90;;;;;;5098381;28;20375;-82
2020/12/24 05:55:38;;;;;;;2.30;1.70;;;8.90;99.90;;;;;;5097102;28;20936;-83
2020/12/24 05:58:05;;;;;;;4.20;1.60;;;8.90;99.90;;;;;;5095896;28;20411;-82
2020/12/24 06:00:39;;;;;;;10.03;1.80;;;8.90;99.90;;;;;;5062572;28;20368;-83
2020/12/24 06:03:15;;;;;;;5.70;1.97;;;8.90;99.90;;;;;;5097308;28;20431;-83
2020/12/24 06:05:58;;;;;;;2.13;1.90;;;8.80;99.90;;;;;;5097003;28;20494;-82
2020/12/24 06:08:27;;;;;;;8.07;2.47;;;8.80;99.90;;;;;;5097787;28;20454;-83
2020/12/24 06:11:03;;;;;;;2.50;1.73;;;8.80;99.90;;;;;;5096654;28;20375;-83
2020/12/24 06:13:38;;;;;;;2.77;1.60;;;8.60;99.90;;;;;;5097356;28;20393;-83
2020/12/24 06:16:07;;;;;;;4.77;2.40;;;8.60;99.90;;;;;;5095974;28;20424;-82
2020/12/24 06:18:37;;;;;;;8.10;2.80;;;8.50;99.90;;;;;;5096866;28;20711;-83
2020/12/24 06:21:11;;;;;;;1.47;1.37;;;8.50;99.90;;;;;;5078168;28;20539;-83
2020/12/24 06:23:38;;;;;;;3.17;1.87;;;8.50;99.90;;;;;;5096520;28;20358;-83
2020/12/24 06:26:07;;;;;;;5.60;2.33;;;8.50;99.90;;;;;;5079034;28;20396;-83
2020/12/24 06:28:35;;;;;;;7.10;1.73;;;8.40;99.90;;;;;;5098068;28;20748;-83
2020/12/24 06:31:02;;;;;;;3.30;1.60;;;8.30;99.90;;;;;;5097105;28;20372;-83
2020/12/24 06:33:30;;;;;;;2.40;1.40;;;8.30;99.90;;;;;;5096939;28;20490;-83
2020/12/24 06:35:56;;;;;;;2.30;1.67;;;8.30;99.90;;;;;;5097346;28;20427;-83
2020/12/24 06:38:45;;;;;;;4.60;1.67;;;8.20;99.90;;;;;;5113582;28;20462;-81
2020/12/24 06:41:29;;;;;;;3.20;1.53;;;8.10;99.90;;;;;;5116309;28;20461;-81
2020/12/24 06:43:56;;;;;;;1.87;1.50;;;8.30;99.90;;;;;;5117334;28;20420;-81
2020/12/24 06:46:22;;;;;;;9.03;1.90;;;8.20;99.90;;;;;;5111825;28;20836;-82
2020/12/24 06:49:03;;;;;;;2.30;2.10;;;8.20;99.90;;;;;;5100331;28;20704;-81
2020/12/24 06:51:50;;;;;;;3.03;1.30;;;8.30;99.90;;;;;;5098475;28;20405;-82
2020/12/24 06:54:28;;;;;;;9.50;1.70;;;8.30;99.90;;;;;;5098630;28;20377;-83
2020/12/24 06:57:27;;;;;;;3.13;1.53;;;8.40;99.90;;;;;;5098977;28;20717;-83
2020/12/24 07:00:17;;;;;;;1.73;1.53;;;8.20;99.90;;;;;;5097849;28;20450;-83
2020/12/24 07:02:45;;;;;;;4.60;2.03;;;8.30;99.90;;;;;;5097534;28;20393;-82
2020/12/24 07:05:38;;;;;;;5.33;1.53;;;8.40;99.90;;;;;;5098388;28;20351;-82
2020/12/24 07:08:04;;;;;;;1.83;1.37;;;8.20;99.90;;;;;;5097934;28;20730;-83
2020/12/24 07:10:45;;;;;;;1.50;1.40;;;8.20;99.90;;;;;;5102768;28;20384;-83
2020/12/24 07:13:38;;;;;;;9.77;1.90;;;8.00;99.90;;;;;;5103899;28;20168;-83
2020/12/24 07:16:07;;;;;;;1.80;1.70;;;8.10;99.90;;;;;;5103009;28;20376;-83
2020/12/24 07:18:36;;;;;;;1.63;1.53;;;8.10;99.90;;;;;;5104807;28;20419;-83
2020/12/24 07:21:05;;;;;;;1.37;1.27;;;8.00;99.90;;;;;;5103580;28;20821;-83
2020/12/24 07:23:35;;;;;;;2.60;1.33;;;8.00;99.90;;;;;;5106305;28;20385;-82
2020/12/24 07:26:03;;;;;;;1.70;1.33;;;8.00;99.90;;;;;;5109490;28;20363;-83
2020/12/24 07:28:32;;;;;;;4.77;1.57;;;8.10;99.90;;;;;;5097213;28;20363;-83
2020/12/24 07:30:59;;;;;;;5.77;2.40;;;8.10;99.90;;;;;;5116321;28;20385;-83
2020/12/24 07:33:26;;;;;;;4.37;1.80;;;8.10;99.90;;;;;;5116207;28;20393;-83
2020/12/24 07:35:53;;;;;;;3.17;1.60;;;8.10;99.90;;;;;;5085808;28;20393;-82
2020/12/24 07:38:21;;;;;;;1.43;1.33;;;8.00;99.90;;;;;;5102320;28;20535;-83
2020/12/24 07:40:48;;;;;;;8.33;1.37;;;8.10;99.90;;;;;;5100917;28;20364;-83
2020/12/24 07:43:14;;;;;;;1.50;1.40;;;8.00;99.90;;;;;;5100916;28;20752;-82
2020/12/24 07:45:42;;;;;;;6.00;2.10;;;8.00;99.90;;;;;;5082964;28;20403;-83
2020/12/24 07:48:14;;;;;;;1.50;1.40;;;8.20;99.90;;;;;;5100876;28;20424;-83
2020/12/24 07:50:40;;;;;;;1.40;1.30;;;8.20;99.90;;;;;;5099466;28;20402;-82
2020/12/24 07:53:09;;;;;;;2.90;1.20;;;8.20;99.90;;;;;;5100107;28;20478;-83
2020/12/24 07:55:35;;;;;;;5.40;1.30;;;8.20;99.90;;;;;;5099798;28;20484;-81
2020/12/24 07:58:10;;;;;;;12.33;2.13;;;8.00;99.90;;;;;;5066359;28;20426;-81
2020/12/24 08:00:43;;;;;;;1.77;1.67;;;8.00;99.90;;;;;;5101985;28;20692;-81
2020/12/24 08:03:13;;;;;;;3.13;1.50;;;8.10;99.90;;;;;;5085575;28;20448;-82
2020/12/24 08:05:39;;;;;;;1.37;1.27;;;8.00;99.90;;;;;;5111073;28;20464;-81
2020/12/24 08:08:05;;;;;;;5.80;1.87;;;7.80;99.90;;;;;;5115368;28;20387;-82
2020/12/24 08:10:38;;;;;;;2.73;1.30;;;8.00;99.90;;;;;;5113735;28;20171;-81
2020/12/24 08:13:05;;;;;;;2.10;1.57;;;7.90;99.90;;;;;;5104477;28;20251;-83
2020/12/24 08:15:33;;;;;;;1.60;1.30;;;7.80;99.90;;;;;;5103826;28;20411;-81
2020/12/24 08:18:02;;;;;;;1.30;1.20;;;7.80;99.90;;;;;;5080770;28;20504;-80
2020/12/24 08:20:46;;;;;;;3.37;1.63;;;8.00;99.90;;;;;;5114215;28;20427;-82
2020/12/24 08:23:21;;;;;;;1.97;1.40;;;8.10;99.90;;;;;;5117612;28;20426;-81
2020/12/24 08:25:52;;;;;;;3.73;1.70;;;8.10;99.90;;;;;;5117945;28;20442;-82
2020/12/24 08:28:19;;;;;;;1.93;1.63;;;7.90;99.90;;;;;;5100470;28;20372;-81
2020/12/24 08:30:48;;;;;;;2.00;1.63;;;8.00;99.90;;;;;;5097217;28;20355;-84
2020/12/24 08:33:14;;;;;;;8.50;1.93;;;7.80;99.90;;;;;;5099062;28;20474;-79
2020/12/24 08:35:40;;;;;;;3.53;1.70;;;7.90;99.90;;;;;;5116628;28;20720;-79
2020/12/24 08:38:14;;;;;;;2.03;1.67;;;8.00;99.90;;;;;;5116520;28;20483;-80
2020/12/24 08:40:40;;;;;;;2.00;1.37;;;8.00;99.90;;;;;;5098258;28;20385;-79
2020/12/24 08:43:09;;;;;;;1.30;1.20;;;7.80;99.90;;;;;;5114384;28;20423;-81
2020/12/24 08:45:44;;;;;;;6.10;2.50;;;7.80;99.90;;;;;;5114779;28;20399;-80
2020/12/24 08:48:26;;;;;;;2.00;1.73;;;7.80;99.90;;;;;;5116016;28;20429;-80
2020/12/24 08:50:52;;;;;;;1.90;1.63;;;7.90;99.90;;;;;;5095113;28;20400;-82
2020/12/24 08:53:22;;;;;;;6.70;3.00;;;8.00;99.90;;;;;;5100347;28;20394;-82
2020/12/24 08:55:48;;;;;;;1.83;1.67;;;8.00;99.90;;;;;;5082382;28;20515;-83
2020/12/24 08:58:13;;;;;;;1.70;1.60;;;7.80;99.90;;;;;;5099430;28;20507;-82
2020/12/24 09:00:39;;;;;;;1.57;1.47;;;7.80;99.90;;;;;;5098391;28;20162;-82
2020/12/24 09:03:21;;;;;;;1.80;1.63;;;7.70;99.90;;;;;;5098777;28;20166;-82
2020/12/24 09:05:47;;;;;;;1.77;1.67;;;7.70;99.90;;;;;;5101017;28;20223;-82
2020/12/24 09:08:22;;;;;;;3.30;1.77;;;7.80;99.90;;;;;;5087624;28;20379;-83
2020/12/24 09:10:48;;;;;;;3.87;2.07;;;7.80;99.90;;;;;;5104727;28;20555;-81
2020/12/24 09:13:14;;;;;;;3.90;1.40;;;7.90;99.90;;;;;;5089083;28;20397;-82
2020/12/24 09:15:39;;;;;;;11.03;2.13;;;8.00;99.90;;;;;;5099442;28;20670;-81
2020/12/24 09:18:07;;;;;;;3.13;1.80;;;8.10;99.90;;;;;;5098703;28;20271;-82
2020/12/24 09:20:35;;;;;;;4.80;1.83;;;8.10;99.90;;;;;;5098913;28;20261;-83
2020/12/24 09:23:07;;;;;;;5.90;2.30;;;8.20;99.90;;;;;;5098584;28;20462;-83
2020/12/24 09:25:35;;;;;;;1.60;1.50;;;8.30;99.90;;;;;;5082302;28;20389;-83
2020/12/24 09:28:03;;;;;;;2.47;2.27;;;8.30;99.90;;;;;;5097309;28;20375;-82
2020/12/24 09:30:29;;;;;;;3.93;1.67;;;8.30;99.90;;;;;;5097654;28;20371;-84
2020/12/24 09:32:59;;;;;;;1.70;1.47;;;8.30;99.90;;;;;;5098753;28;20376;-83
2020/12/24 09:35:26;;;;;;;3.20;1.90;;;8.00;99.90;;;;;;5098529;28;20368;-82
2020/12/24 09:37:53;;;;;;;3.60;2.63;;;8.00;99.90;;;;;;5047157;28;20488;-82
2020/12/24 09:40:20;;;;;;;5.27;2.07;;;8.10;99.90;;;;;;5100085;28;20517;-83
2020/12/24 09:42:46;;;;;;;1.10;1.00;;;8.20;99.90;;;;;;5098431;28;20372;-81
2020/12/24 09:45:12;;;;;;;1.40;1.30;;;8.10;99.90;;;;;;5098602;28;20476;-82
2020/12/24 09:47:38;;;;;;;1.40;1.30;;;8.10;99.90;;;;;;5098829;28;20431;-83
2020/12/24 09:50:05;;;;;;;1.73;1.20;;;8.10;99.90;;;;;;5100312;28;20497;-82
2020/12/24 09:52:32;;;;;;;0.93;0.93;;;7.90;99.90;;;;;;5081416;28;20237;-83
2020/12/24 09:54:58;;;;;;;1.40;1.30;;;7.90;99.90;;;;;;5098647;28;20404;-81
2020/12/24 09:57:23;;;;;;;1.40;1.30;;;8.10;99.90;;;;;;5099915;28;20393;-81
2020/12/24 09:59:49;;;;;;;2.53;1.53;;;8.20;99.90;;;;;;5096579;28;20389;-81
2020/12/24 10:02:15;;;;;;;2.03;1.30;;;8.30;99.90;;;;;;5096942;28;20178;-81
2020/12/24 10:04:41;;;;;;;2.40;1.17;;;8.30;99.90;;;;;;5098420;28;20496;-83
2020/12/24 10:07:08;;;;;;;1.43;1.17;;;8.20;99.90;;;;;;5097810;28;20359;-82
2020/12/24 10:09:34;;;;;;;2.90;1.50;;;8.40;99.90;;;;;;5097732;28;20151;-81
2020/12/24 10:12:00;;;;;;;1.97;1.60;;;8.40;99.90;;;;;;5099074;28;20404;-83
2020/12/24 10:14:26;;;;;;;5.23;1.70;;;8.30;99.90;;;;;;5079991;28;20154;-81
2020/12/24 10:16:51;;;;;;;2.93;1.67;;;8.40;99.90;;;;;;5107373;28;20186;-83
2020/12/24 10:19:17;;;;;;;1.63;1.30;;;8.40;99.90;;;;;;5100072;28;20216;-83
2020/12/24 10:21:43;;;;;;;1.80;1.70;;;8.40;99.90;;;;;;5096487;28;20313;-82
2020/12/24 10:24:09;;;;;;;2.83;1.37;;;8.50;99.90;;;;;;5079811;28;20162;-83
2020/12/24 10:26:34;;;;;;;1.00;1.00;;;8.20;99.90;;;;;;5097379;28;20166;-83
2020/12/24 10:29:00;;;;;;;3.63;1.57;;;8.20;99.90;;;;;;5097641;28;20181;-83
2020/12/24 10:31:26;;;;;;;1.03;0.97;;;8.00;99.90;;;;;;5096857;28;20167;-83
2020/12/24 10:33:52;;;;;;;1.20;1.10;;;8.10;99.90;;;;;;5097873;28;20198;-83
2020/12/24 10:36:21;;;;;;;1.50;1.40;;;8.20;99.90;;;;;;5078634;28;20625;-79
2020/12/24 10:38:47;;;;;;;1.20;1.10;;;8.10;99.90;;;;;;5096561;28;20590;-83
2020/12/24 10:41:13;;;;;;;1.50;1.40;;;8.20;99.90;;;;;;5096349;28;20405;-83
2020/12/24 10:43:38;;;;;;;2.40;1.30;;;8.40;99.90;;;;;;5080171;28;20178;-83
2020/12/24 10:46:04;;;;;;;1.53;1.43;;;8.00;99.90;;;;;;5101803;28;20212;-83
2020/12/24 10:48:30;;;;;;;2.50;1.80;;;7.90;99.90;;;;;;5100574;28;20190;-83
2020/12/24 10:50:56;;;;;;;3.00;2.67;;;8.10;99.90;;;;;;5100397;28;20239;-83
2020/12/24 10:53:21;;;;;;;2.90;1.60;;;8.20;99.90;;;;;;5101171;28;20166;-83
2020/12/24 10:55:47;;;;;;;2.13;2.03;;;8.30;99.90;;;;;;5082547;28;20253;-83
2020/12/24 10:58:14;;;;;;;2.60;2.40;;;8.30;99.90;;;;;;5100761;28;20199;-83
2020/12/24 11:00:40;;;;;;;1.43;1.33;;;8.20;99.90;;;;;;5100815;28;20838;-83
2020/12/24 11:03:06;;;;;;;2.20;1.90;;;8.10;99.90;;;;;;5100450;28;20454;-83
2020/12/24 11:05:32;;;;;;;3.43;1.30;;;8.20;99.90;;;;;;5100796;28;20462;-84
2020/12/24 11:07:58;;;;;;;1.30;1.20;;;8.40;99.90;;;;;;5101349;28;20379;-83
2020/12/24 11:10:24;;;;;;;3.23;1.77;;;8.20;99.90;;;;;;5100434;28;20165;-83
2020/12/24 11:12:50;;;;;;;1.60;1.37;;;8.20;99.90;;;;;;5101002;28;20872;-83
2020/12/24 11:15:15;;;;;;;2.20;1.20;;;8.20;99.90;;;;;;5100548;28;20496;-83
2020/12/24 11:17:41;;;;;;;4.40;2.43;;;8.20;99.90;;;;;;5065298;28;20214;-83
2020/12/24 11:20:07;;;;;;;1.67;1.57;;;8.30;99.90;;;;;;5100566;28;20222;-83
2020/12/24 11:22:33;;;;;;;1.97;1.77;;;8.40;99.90;;;;;;5100614;28;20178;-83
2020/12/24 11:25:01;;;;;;;2.50;1.80;;;8.40;99.90;;;;;;5101119;28;20174;-81
2020/12/24 11:27:27;;;;;;;1.63;1.53;;;8.30;99.90;;;;;;5080528;28;20163;-83
2020/12/24 11:29:53;;;;;;;2.03;1.83;;;8.50;99.90;;;;;;5099758;28;20400;-81
2020/12/24 11:32:18;;;;;;;2.60;1.33;;;8.20;99.90;;;;;;5041780;28;20192;-83
2020/12/24 11:34:44;;;;;;;3.93;1.50;;;8.20;99.90;;;;;;5057379;28;20509;-83
2020/12/24 11:37:10;;;;;;;2.10;1.13;;;8.30;99.90;;;;;;5058247;28;20180;-82
2020/12/24 11:39:36;;;;;;;4.03;1.40;;;8.40;99.90;;;;;;5056242;28;20191;-84
2020/12/24 11:42:01;;;;;;;1.20;1.10;;;8.40;99.90;;;;;;5056040;28;20190;-82
2020/12/24 11:44:28;;;;;;;2.20;1.30;;;8.50;99.90;;;;;;5053722;28;20270;-83
2020/12/24 11:46:54;;;;;;;3.43;1.43;;;8.30;99.90;;;;;;5057390;28;20191;-81
2020/12/24 11:49:20;;;;;;;3.03;2.77;;;8.40;99.90;;;;;;5065928;28;20854;-82
2020/12/24 11:51:48;;;;;;;4.33;1.80;;;8.50;99.90;;;;;;5051604;28;20675;-84
2020/12/24 11:54:14;;;;;;;1.90;1.20;;;8.50;99.90;;;;;;5056749;28;20369;-84
2020/12/24 11:56:42;;;;;;;1.33;1.20;;;8.50;99.90;;;;;;5055388;28;20160;-81
2020/12/24 11:59:08;;;;;;;1.97;1.63;;;8.70;99.90;;;;;;5055568;28;20188;-82
2020/12/24 12:01:34;;;;;;;1.87;1.77;;;8.50;99.90;;;;;;5040689;28;20945;-81
2020/12/24 12:04:00;;;;;;;2.00;1.80;;;8.50;99.90;;;;;;5061758;28;20206;-83
2020/12/24 12:06:26;;;;;;;2.40;1.87;;;8.60;99.90;;;;;;5081135;28;20404;-82
2020/12/24 12:08:52;;;;;;;1.87;1.40;;;8.60;99.90;;;;;;5099515;28;20391;-83
2020/12/24 12:11:19;;;;;;;1.97;1.87;;;8.50;99.90;;;;;;5099932;28;20167;-83
2020/12/24 12:13:47;;;;;;;1.40;1.20;;;8.50;99.90;;;;;;5097906;28;20173;-83
2020/12/24 12:16:13;;;;;;;1.93;1.50;;;8.50;99.90;;;;;;5098828;28;20446;-83
2020/12/24 12:18:39;;;;;;;1.30;1.20;;;8.50;99.90;;;;;;5081197;28;20415;-83
2020/12/24 12:21:05;;;;;;;1.50;1.40;;;8.40;99.90;;;;;;5098722;28;20230;-83
2020/12/24 12:23:31;;;;;;;2.40;1.40;;;8.40;99.90;;;;;;5098761;28;20208;-83
2020/12/24 12:25:57;;;;;;;1.77;1.40;;;8.30;99.90;;;;;;5098410;28;20734;-82
2020/12/24 12:28:23;;;;;;;2.33;1.67;;;8.40;99.90;;;;;;5099027;28;20419;-83
2020/12/24 12:30:48;;;;;;;1.53;1.37;;;8.40;99.90;;;;;;5098521;28;20581;-84
2020/12/24 12:33:14;;;;;;;1.70;1.60;;;8.40;99.90;;;;;;5098525;28;20163;-84
2020/12/24 12:35:40;;;;;;;2.60;1.20;;;8.30;99.90;;;;;;5080723;28;20583;-83
2020/12/24 12:38:06;;;;;;;3.10;1.60;;;8.30;99.90;;;;;;5099088;28;20448;-84
2020/12/24 12:40:32;;;;;;;2.57;2.00;;;8.30;99.90;;;;;;5098539;28;20647;-84
2020/12/24 12:42:58;;;;;;;1.73;1.40;;;8.30;99.90;;;;;;5098397;28;20245;-81
2020/12/24 12:45:25;;;;;;;1.63;1.40;;;8.30;99.90;;;;;;5046661;28;20162;-83
2020/12/24 12:47:51;;;;;;;3.70;1.60;;;8.20;99.90;;;;;;5080148;28;20722;-84
2020/12/24 12:50:16;;;;;;;1.77;1.47;;;8.40;99.90;;;;;;5098505;28;20525;-83
2020/12/24 12:52:42;;;;;;;1.23;1.13;;;8.40;99.90;;;;;;5097391;28;20223;-82
2020/12/24 12:55:08;;;;;;;1.30;1.20;;;8.40;99.90;;;;;;5063116;28;20606;-81